createdAt,value
2022-09-14T00:01:26.887Z,75.05
2022-09-14T00:06:33.423Z,64.22
2022-09-14T00:11:40.537Z,60.40
2022-09-14T00:16:47.351Z,64.00
2022-09-14T00:21:56.191Z,58.25
2022-09-14T00:27:02.186Z,65.35
2022-09-14T00:32:08.063Z,74.28
2022-09-14T00:37:14.301Z,70.20
2022-09-14T00:42:21.354Z,62.67
2022-09-14T00:47:27.802Z,68.57
2022-09-14T00:52:36.347Z,79.15
2022-09-14T00:57:47.649Z,66.22
2022-09-14T01:02:54.259Z,73.25
2022-09-14T01:08:19.836Z,72.25
2022-09-14T01:13:51.985Z,76.65
2022-09-14T01:19:08.386Z,71.70
2022-09-14T01:24:29.916Z,70.15
2022-09-14T01:30:00.229Z,76.93
2022-09-14T01:35:21.461Z,69.88
2022-09-14T01:40:27.271Z,69.53
2022-09-14T01:45:36.478Z,78.30
2022-09-14T01:50:52.705Z,72.20
2022-09-14T01:56:02.224Z,73.18
2022-09-14T02:01:10.886Z,71.05
2022-09-14T02:06:31.088Z,61.65
2022-09-14T02:11:37.698Z,71.80
2022-09-14T02:16:46.894Z,71.43
2022-09-14T02:21:52.578Z,72.95
2022-09-14T02:27:00.164Z,77.28
2022-09-14T02:32:41.966Z,70.00
2022-09-14T02:38:31.122Z,81.63
2022-09-14T02:43:45.304Z,78.80
2022-09-14T02:48:56.893Z,84.63
2022-09-14T02:54:18.751Z,81.25
2022-09-14T02:59:24.588Z,62.35
2022-09-14T03:04:30.783Z,80.57
2022-09-14T03:09:37.071Z,76.35
2022-09-14T03:14:42.942Z,80.72
2022-09-14T03:19:49.063Z,71.63
2022-09-14T03:24:54.975Z,72.90
2022-09-14T03:30:00.808Z,69.68
2022-09-14T03:35:06.535Z,80.57
2022-09-14T03:40:19.278Z,74.40
2022-09-14T03:45:30.099Z,75.43
2022-09-14T03:50:36.382Z,76.38
2022-09-14T03:55:43.513Z,72.47
2022-09-14T04:00:49.347Z,80.63
2022-09-14T04:05:59.057Z,68.43
2022-09-14T04:11:13.533Z,75.00
2022-09-14T04:16:20.638Z,82.47
2022-09-14T04:21:28.316Z,75.20
2022-09-14T04:26:34.721Z,60.97
2022-09-14T04:31:53.136Z,79.28
2022-09-14T04:36:58.645Z,72.20
2022-09-14T04:42:06.644Z,68.95
2022-09-14T04:47:12.049Z,71.30
2022-09-14T04:52:17.970Z,66.60
2022-09-14T04:57:24.577Z,70.43
2022-09-14T05:02:32.669Z,61.38
2022-09-14T05:07:38.703Z,66.85
2022-09-14T05:12:44.552Z,68.97
2022-09-14T05:17:50.965Z,69.35
2022-09-14T05:22:56.697Z,55.45
2022-09-14T05:28:03.206Z,63.72
2022-09-14T05:33:09.132Z,60.17
2022-09-14T05:38:15.986Z,62.38
2022-09-14T05:43:21.879Z,62.67
2022-09-14T05:48:27.702Z,47.97
2022-09-14T05:53:34.337Z,52.17
2022-09-14T05:58:44.634Z,45.78
2022-09-14T06:03:54.611Z,46.97
2022-09-14T06:09:03.667Z,45.97
2022-09-14T06:14:09.359Z,43.65
2022-09-14T06:19:16.982Z,45.85
2022-09-14T06:24:23.332Z,44.42
2022-09-14T06:29:28.773Z,42.55
2022-09-14T06:34:34.539Z,44.67
2022-09-14T06:39:41.305Z,45.40
2022-09-14T06:44:47.059Z,39.88
2022-09-14T06:49:52.950Z,36.88
2022-09-14T06:54:58.744Z,14.05
2022-09-14T07:00:11.842Z,39.42
2022-09-14T07:10:47.084Z,30.08
2022-09-14T07:16:07.030Z,23.35
2022-09-14T07:21:35.367Z,24.55
2022-09-14T07:26:44.261Z,30.35
2022-09-14T07:31:56.001Z,29.33
2022-09-14T07:37:01.981Z,15.40
2022-09-14T07:42:07.896Z,28.02
2022-09-14T07:47:13.642Z,27.27
2022-09-14T07:52:19.139Z,26.15
2022-09-14T07:57:45.445Z,19.60
2022-09-14T08:02:55.543Z,25.33
2022-09-14T08:08:01.187Z,20.77
2022-09-14T08:13:06.928Z,27.40
2022-09-14T08:18:12.796Z,25.90
2022-09-14T08:23:18.304Z,26.33
2022-09-14T08:28:23.865Z,22.77
2022-09-14T08:33:29.761Z,25.85
2022-09-14T08:38:35.034Z,22.50
2022-09-14T08:48:50.482Z,25.88
2022-09-14T08:53:58.414Z,20.88
2022-09-14T08:59:03.858Z,26.00
2022-09-14T09:04:38.741Z,23.88
2022-09-14T09:09:51.155Z,25.93
2022-09-14T09:15:02.856Z,23.15
2022-09-14T09:20:28.794Z,25.05
2022-09-14T09:30:47.727Z,22.27
2022-09-14T09:35:57.310Z,22.55
2022-09-14T09:41:09.630Z,21.35
2022-09-14T09:46:15.628Z,18.75
2022-09-14T09:51:28.433Z,20.95
2022-09-14T09:56:39.968Z,23.10
2022-09-14T10:01:46.107Z,20.75
2022-09-14T10:06:57.221Z,22.67
2022-09-14T10:12:08.027Z,19.95
2022-09-14T10:17:21.148Z,22.20
2022-09-14T10:22:35.928Z,26.13
2022-09-14T10:27:44.934Z,22.65
2022-09-14T10:33:06.260Z,25.15
2022-09-14T10:38:31.632Z,26.65
2022-09-14T10:43:47.002Z,24.17
2022-09-14T10:54:07.524Z,29.70
2022-09-14T10:59:22.445Z,29.67
2022-09-14T11:05:19.005Z,33.37
2022-09-14T11:10:46.321Z,35.83
2022-09-14T11:16:33.228Z,31.63
2022-09-14T11:21:45.927Z,32.13
2022-09-14T11:27:17.397Z,33.05
2022-09-14T11:33:01.752Z,33.50
2022-09-14T11:38:23.131Z,32.95
2022-09-14T11:43:54.485Z,32.58
2022-09-14T11:49:12.165Z,31.95
2022-09-14T11:54:23.293Z,30.75
2022-09-14T11:59:44.032Z,33.72
2022-09-14T12:05:07.955Z,35.90
2022-09-14T12:10:20.886Z,35.65
2022-09-14T12:15:29.620Z,37.13
2022-09-14T12:20:44.714Z,37.13
2022-09-14T12:26:21.641Z,39.55
2022-09-14T12:31:51.883Z,40.83
2022-09-14T12:36:59.631Z,40.50
2022-09-14T12:42:31.661Z,41.78
2022-09-14T12:47:37.542Z,43.25
2022-09-14T12:53:14.097Z,47.92
2022-09-14T12:59:00.982Z,46.20
2022-09-14T13:04:07.948Z,56.67
2022-09-14T13:09:22.311Z,62.80
2022-09-14T13:14:32.458Z,50.28
2022-09-14T13:19:38.209Z,61.50
2022-09-14T13:24:48.617Z,64.75
2022-09-14T13:30:12.861Z,58.88
2022-09-14T13:35:51.010Z,68.45
2022-09-14T13:41:06.041Z,60.00
2022-09-14T13:46:16.179Z,57.45
2022-09-14T13:51:31.607Z,58.47
2022-09-14T13:56:38.069Z,57.78
2022-09-14T14:01:52.867Z,58.05
2022-09-14T14:07:07.584Z,52.43
2022-09-14T14:12:16.165Z,39.33
2022-09-14T14:17:24.843Z,37.22
2022-09-14T14:22:41.026Z,24.88
2022-09-14T14:39:03.742Z,19.52
2022-09-14T14:44:24.191Z,27.13
2022-09-14T14:49:32.393Z,20.42
2022-09-14T14:54:43.127Z,24.92
2022-09-14T14:59:54.454Z,23.52
2022-09-14T15:05:00.550Z,23.33
2022-09-14T15:10:10.669Z,24.17
2022-09-14T15:15:20.257Z,24.30
2022-09-14T15:20:26.276Z,24.83
2022-09-14T15:25:32.393Z,25.80
2022-09-14T15:30:39.336Z,20.67
2022-09-14T15:35:45.401Z,21.83
2022-09-14T15:40:58.976Z,22.88
2022-09-14T15:46:05.539Z,23.60
2022-09-14T15:51:14.798Z,26.10
2022-09-14T15:56:21.051Z,21.60
2022-09-14T16:01:27.226Z,21.85
2022-09-14T16:06:35.826Z,18.77
2022-09-14T16:11:42.398Z,19.95
2022-09-14T16:16:48.098Z,24.00
2022-09-14T16:21:57.403Z,21.77
2022-09-14T16:27:04.514Z,23.38
2022-09-14T16:32:10.097Z,26.45
2022-09-14T16:37:16.276Z,23.23
2022-09-14T16:42:22.055Z,25.10
2022-09-14T16:47:27.500Z,24.73
2022-09-14T16:52:33.688Z,24.73
2022-09-14T16:57:39.155Z,26.95
2022-09-14T17:02:47.764Z,25.65
2022-09-14T17:07:53.938Z,26.05
2022-09-14T17:13:00.625Z,29.30
2022-09-14T17:18:07.150Z,27.63
2022-09-14T17:23:13.221Z,25.00
2022-09-14T17:28:19.461Z,27.05
2022-09-14T17:33:27.495Z,27.48
2022-09-14T17:38:37.591Z,26.85
2022-09-14T17:43:44.294Z,27.38
2022-09-14T17:48:50.306Z,28.25
2022-09-14T17:53:58.109Z,25.25
2022-09-14T17:59:24.032Z,25.35
2022-09-14T18:04:30.152Z,26.17
2022-09-14T18:09:36.313Z,25.23
2022-09-14T18:14:41.868Z,25.58
2022-09-14T18:19:47.740Z,25.08
2022-09-14T18:24:53.582Z,27.75
2022-09-14T18:29:59.359Z,27.08
2022-09-14T18:35:05.566Z,21.17
2022-09-14T18:40:11.789Z,26.63
2022-09-14T18:45:17.304Z,26.27
2022-09-14T18:50:24.811Z,25.23
2022-09-14T18:55:30.619Z,24.42
2022-09-14T19:00:36.908Z,25.90
2022-09-14T19:05:44.077Z,27.52
2022-09-14T19:10:50.028Z,27.98
2022-09-14T19:15:55.892Z,21.65
2022-09-14T19:21:13.262Z,22.48
2022-09-14T19:26:24.558Z,24.90
2022-09-14T19:31:32.332Z,23.33
2022-09-14T19:36:37.880Z,26.05
2022-09-14T19:41:43.380Z,27.58
2022-09-14T19:46:48.958Z,27.85
2022-09-14T19:51:55.321Z,28.92
2022-09-14T19:57:09.509Z,28.48
2022-09-14T20:02:15.325Z,26.08
2022-09-14T20:07:21.713Z,25.98
2022-09-14T20:12:27.179Z,27.17
2022-09-14T20:17:32.817Z,27.67
2022-09-14T20:22:38.944Z,26.67
2022-09-14T20:27:44.678Z,24.60
2022-09-14T20:32:50.851Z,25.80
2022-09-14T20:37:56.356Z,25.98
2022-09-14T20:43:01.780Z,22.38
2022-09-14T20:48:07.264Z,25.58
2022-09-14T20:53:12.927Z,22.17
2022-09-14T20:58:18.596Z,24.42
2022-09-14T21:03:25.473Z,26.63
2022-09-14T21:08:33.159Z,25.80
2022-09-14T21:13:38.767Z,25.52
2022-09-14T21:18:45.023Z,23.25
2022-09-14T21:23:52.134Z,22.90
2022-09-14T21:29:03.190Z,24.63
2022-09-14T21:34:11.892Z,24.13
2022-09-14T21:39:24.797Z,26.38
2022-09-14T21:44:32.591Z,23.60
2022-09-14T21:49:38.312Z,24.73
2022-09-14T21:54:44.136Z,25.13
2022-09-14T21:59:49.569Z,25.92
2022-09-14T22:10:00.102Z,26.92
2022-09-14T22:15:06.074Z,28.17
2022-09-14T22:20:12.480Z,27.58
2022-09-14T22:25:19.024Z,30.13
2022-09-14T22:30:24.776Z,31.55
2022-09-14T22:35:30.648Z,32.60
2022-09-14T22:40:36.121Z,33.15
2022-09-14T22:45:41.991Z,33.45
2022-09-14T22:50:49.466Z,31.42
2022-09-14T22:55:55.210Z,31.63
2022-09-14T23:01:06.536Z,32.22
2022-09-14T23:06:12.384Z,41.63
2022-09-14T23:11:17.831Z,38.45
2022-09-14T23:21:32.703Z,41.22
2022-09-14T23:26:38.409Z,43.13
2022-09-14T23:31:43.898Z,38.95
2022-09-14T23:36:53.269Z,38.63
2022-09-14T23:41:59.198Z,38.10
2022-09-14T23:47:04.916Z,37.95
2022-09-14T23:52:10.358Z,38.90
2022-09-14T23:57:16.129Z,41.08
